sensor_id;sensor_type;location;lat;lon;timestamp;pressure;altitude;pressure_sealevel;temperature;humidity
13800;BME280;6971;50.028;9.258;2024-03-23T00:53:35;98562.38;;;4.10;100.00
13800;BME280;6971;50.028;9.258;2024-03-23T00:58:35;98546.91;;;4.26;100.00
13800;BME280;6971;50.028;9.258;2024-03-23T01:03:36;98528.00;;;4.21;100.00
13800;BME280;6971;50.028;9.258;2024-03-23T01:08:36;98522.38;;;4.09;100.00
13800;BME280;6971;50.028;9.258;2024-03-23T01:13:36;98504.41;;;4.03;100.00
13800;BME280;6971;50.028;9.258;2024-03-23T01:18:37;98490.50;;;4.02;100.00
13800;BME280;6971;50.028;9.258;2024-03-23T01:23:37;98489.16;;;3.94;100.00
13800;BME280;6971;50.028;9.258;2024-03-23T01:28:37;98468.59;;;4.07;100.00
13800;BME280;6971;50.028;9.258;2024-03-23T01:33:38;98467.22;;;4.18;100.00
13800;BME280;6971;50.028;9.258;2024-03-23T01:38:38;98474.19;;;4.39;100.00
13800;BME280;6971;50.028;9.258;2024-03-23T01:43:38;98465.69;;;4.54;100.00
13800;BME280;6971;50.028;9.258;2024-03-23T01:48:39;98451.94;;;4.51;100.00
13800;BME280;6971;50.028;9.258;2024-03-23T01:53:39;98446.44;;;4.57;100.00
13800;BME280;6971;50.028;9.258;2024-03-23T01:58:39;98446.81;;;4.68;100.00
13800;BME280;6971;50.028;9.258;2024-03-23T02:03:40;98442.47;;;4.67;100.00
13800;BME280;6971;50.028;9.258;2024-03-23T02:08:40;98436.22;;;4.91;100.00
13800;BME280;6971;50.028;9.258;2024-03-23T02:13:41;98427.63;;;4.89;100.00
13800;BME280;6971;50.028;9.258;2024-03-23T02:18:41;98427.81;;;5.03;100.00
13800;BME280;6971;50.028;9.258;2024-03-23T02:23:41;98410.50;;;5.01;100.00
13800;BME280;6971;50.028;9.258;2024-03-23T02:28:42;98409.16;;;5.11;100.00
13800;BME280;6971;50.028;9.258;2024-03-23T02:33:42;98395.88;;;5.16;100.00
13800;BME280;6971;50.028;9.258;2024-03-23T02:38:42;98397.22;;;5.05;100.00
13800;BME280;6971;50.028;9.258;2024-03-23T02:43:43;98397.56;;;5.17;100.00
13800;BME280;6971;50.028;9.258;2024-03-23T02:48:44;98409.56;;;5.21;100.00
13800;BME280;6971;50.028;9.258;2024-03-23T02:53:44;98392.44;;;5.33;100.00
13800;BME280;6971;50.028;9.258;2024-03-23T02:58:45;98398.00;;;5.44;100.00
13800;BME280;6971;50.028;9.258;2024-03-23T03:03:45;98377.78;;;5.48;100.00
13800;BME280;6971;50.028;9.258;2024-03-23T03:08:45;98374.84;;;5.54;100.00
13800;BME280;6971;50.028;9.258;2024-03-23T03:13:46;98358.63;;;5.65;100.00
13800;BME280;6971;50.028;9.258;2024-03-23T03:18:46;98362.09;;;5.66;100.00
13800;BME280;6971;50.028;9.258;2024-03-23T03:23:46;98365.38;;;5.69;100.00
13800;BME280;6971;50.028;9.258;2024-03-23T03:28:50;98352.53;;;5.82;100.00
13800;BME280;6971;50.028;9.258;2024-03-23T03:33:51;98341.38;;;5.79;100.00
13800;BME280;6971;50.028;9.258;2024-03-23T03:38:51;98342.44;;;5.74;100.00
13800;BME280;6971;50.028;9.258;2024-03-23T03:43:51;98344.69;;;5.82;100.00
13800;BME280;6971;50.028;9.258;2024-03-23T03:48:52;98332.69;;;5.78;100.00
13800;BME280;6971;50.028;9.258;2024-03-23T03:53:52;98324.59;;;5.83;100.00
13800;BME280;6971;50.028;9.258;2024-03-23T03:58:53;98290.47;;;5.86;100.00
13800;BME280;6971;50.028;9.258;2024-03-23T04:03:53;98294.69;;;5.88;100.00
13800;BME280;6971;50.028;9.258;2024-03-23T04:08:53;98316.28;;;5.92;100.00
13800;BME280;6971;50.028;9.258;2024-03-23T04:13:54;98303.91;;;5.96;100.00
13800;BME280;6971;50.028;9.258;2024-03-23T04:18:54;98300.03;;;6.03;100.00
13800;BME280;6971;50.028;9.258;2024-03-23T04:23:54;98299.25;;;6.01;100.00
13800;BME280;6971;50.028;9.258;2024-03-23T04:28:55;98300.13;;;6.01;100.00
13800;BME280;6971;50.028;9.258;2024-03-23T04:33:55;98300.81;;;6.05;100.00
13800;BME280;6971;50.028;9.258;2024-03-23T04:38:59;98300.16;;;6.18;100.00
13800;BME280;6971;50.028;9.258;2024-03-23T04:44:00;98289.63;;;6.19;100.00
13800;BME280;6971;50.028;9.258;2024-03-23T04:49:00;98278.72;;;6.27;100.00
13800;BME280;6971;50.028;9.258;2024-03-23T04:54:00;98274.34;;;6.44;100.00
13800;BME280;6971;50.028;9.258;2024-03-23T04:59:01;98276.25;;;6.72;100.00
13800;BME280;6971;50.028;9.258;2024-03-23T05:04:02;98291.38;;;7.59;100.00
13800;BME280;6971;50.028;9.258;2024-03-23T05:09:02;98304.69;;;8.00;100.00
13800;BME280;6971;50.028;9.258;2024-03-23T05:14:06;98321.16;;;8.02;100.00
13800;BME280;6971;50.028;9.258;2024-03-23T05:19:06;98322.69;;;7.77;100.00
13800;BME280;6971;50.028;9.258;2024-03-23T05:24:07;98316.19;;;7.53;100.00
13800;BME280;6971;50.028;9.258;2024-03-23T05:29:07;98350.63;;;7.16;100.00
13800;BME280;6971;50.028;9.258;2024-03-23T05:34:13;98359.44;;;6.99;100.00
13800;BME280;6971;50.028;9.258;2024-03-23T05:39:13;98361.44;;;6.94;100.00
13800;BME280;6971;50.028;9.258;2024-03-23T05:44:16;98376.84;;;6.84;100.00
13800;BME280;6971;50.028;9.258;2024-03-23T05:49:17;98414.69;;;6.78;100.00
13800;BME280;6971;50.028;9.258;2024-03-23T05:54:18;98421.97;;;6.57;100.00
13800;BME280;6971;50.028;9.258;2024-03-23T05:59:18;98446.75;;;6.50;100.00
13800;BME280;6971;50.028;9.258;2024-03-23T06:04:19;98467.72;;;6.32;100.00
13800;BME280;6971;50.028;9.258;2024-03-23T06:09:19;98473.13;;;6.11;100.00
13800;BME280;6971;50.028;9.258;2024-03-23T06:14:20;98478.97;;;5.99;100.00
13800;BME280;6971;50.028;9.258;2024-03-23T06:19:20;98480.41;;;5.87;100.00
13800;BME280;6971;50.028;9.258;2024-03-23T06:24:22;98474.38;;;5.86;100.00
13800;BME280;6971;50.028;9.258;2024-03-23T06:29:22;98485.28;;;5.77;100.00
13800;BME280;6971;50.028;9.258;2024-03-23T06:34:22;98504.66;;;5.73;100.00
13800;BME280;6971;50.028;9.258;2024-03-23T06:39:23;98510.34;;;5.64;100.00
13800;BME280;6971;50.028;9.258;2024-03-23T06:44:23;98514.28;;;5.53;100.00
13800;BME280;6971;50.028;9.258;2024-03-23T06:49:24;98538.44;;;5.58;100.00
13800;BME280;6971;50.028;9.258;2024-03-23T06:54:24;98560.28;;;5.38;100.00
13800;BME280;6971;50.028;9.258;2024-03-23T06:59:25;98592.56;;;5.56;100.00
13800;BME280;6971;50.028;9.258;2024-03-23T07:04:25;98623.16;;;5.35;100.00
13800;BME280;6971;50.028;9.258;2024-03-23T07:09:27;98640.16;;;5.25;100.00
13800;BME280;6971;50.028;9.258;2024-03-23T07:14:28;98630.69;;;5.22;100.00
13800;BME280;6971;50.028;9.258;2024-03-23T07:19:28;98625.22;;;5.28;100.00
13800;BME280;6971;50.028;9.258;2024-03-23T07:24:28;98639.13;;;5.08;100.00
13800;BME280;6971;50.028;9.258;2024-03-23T07:29:31;98646.38;;;5.01;100.00
13800;BME280;6971;50.028;9.258;2024-03-23T07:34:31;98663.53;;;5.28;100.00
13800;BME280;6971;50.028;9.258;2024-03-23T07:39:32;98687.97;;;5.27;100.00
13800;BME280;6971;50.028;9.258;2024-03-23T07:44:34;98701.56;;;5.14;100.00
13800;BME280;6971;50.028;9.258;2024-03-23T07:49:34;98716.72;;;5.27;100.00
13800;BME280;6971;50.028;9.258;2024-03-23T07:54:34;98719.78;;;5.16;100.00
13800;BME280;6971;50.028;9.258;2024-03-23T07:59:35;98737.56;;;5.07;100.00
13800;BME280;6971;50.028;9.258;2024-03-23T08:04:35;98755.38;;;5.18;100.00
13800;BME280;6971;50.028;9.258;2024-03-23T08:09:35;98758.63;;;5.03;100.00
13800;BME280;6971;50.028;9.258;2024-03-23T08:14:36;98765.44;;;5.28;100.00
13800;BME280;6971;50.028;9.258;2024-03-23T08:19:36;98778.63;;;5.45;100.00
13800;BME280;6971;50.028;9.258;2024-03-23T08:24:36;98789.72;;;5.51;100.00
13800;BME280;6971;50.028;9.258;2024-03-23T08:29:37;98800.19;;;5.51;100.00
13800;BME280;6971;50.028;9.258;2024-03-23T08:34:37;98817.81;;;5.66;100.00
13800;BME280;6971;50.028;9.258;2024-03-23T08:39:37;98819.75;;;5.42;100.00
13800;BME280;6971;50.028;9.258;2024-03-23T08:44:38;98828.41;;;5.42;100.00
13800;BME280;6971;50.028;9.258;2024-03-23T08:49:38;98846.50;;;5.26;100.00
13800;BME280;6971;50.028;9.258;2024-03-23T08:54:38;98852.53;;;5.28;100.00
13800;BME280;6971;50.028;9.258;2024-03-23T08:59:39;98862.06;;;5.29;100.00
13800;BME280;6971;50.028;9.258;2024-03-23T09:04:39;98867.16;;;5.32;100.00
13800;BME280;6971;50.028;9.258;2024-03-23T09:09:40;98867.38;;;5.48;100.00
13800;BME280;6971;50.028;9.258;2024-03-23T09:14:40;98866.31;;;5.73;100.00
13800;BME280;6971;50.028;9.258;2024-03-23T09:19:40;98875.72;;;5.98;100.00
13800;BME280;6971;50.028;9.258;2024-03-23T09:24:41;98862.44;;;6.03;100.00
13800;BME280;6971;50.028;9.258;2024-03-23T09:29:41;98870.00;;;6.30;100.00
13800;BME280;6971;50.028;9.258;2024-03-23T09:34:41;98888.31;;;6.69;100.00
13800;BME280;6971;50.028;9.258;2024-03-23T09:39:42;98887.75;;;7.18;100.00
13800;BME280;6971;50.028;9.258;2024-03-23T09:44:42;98887.66;;;8.08;100.00
13800;BME280;6971;50.028;9.258;2024-03-23T09:49:44;98887.16;;;7.30;100.00
13800;BME280;6971;50.028;9.258;2024-03-23T09:54:44;98905.22;;;8.57;100.00
13800;BME280;6971;50.028;9.258;2024-03-23T09:59:45;98912.72;;;8.65;100.00
13800;BME280;6971;50.028;9.258;2024-03-23T10:04:45;98891.31;;;7.88;100.00
13800;BME280;6971;50.028;9.258;2024-03-23T10:09:46;98893.00;;;7.89;100.00
13800;BME280;6971;50.028;9.258;2024-03-23T10:14:52;98887.81;;;8.05;100.00
13800;BME280;6971;50.028;9.258;2024-03-23T10:19:55;98893.69;;;8.60;100.00
13800;BME280;6971;50.028;9.258;2024-03-23T10:25:07;98887.13;;;8.35;100.00
13800;BME280;6971;50.028;9.258;2024-03-23T10:30:14;98876.16;;;8.10;100.00
13800;BME280;6971;50.028;9.258;2024-03-23T10:35:19;98888.19;;;7.63;100.00
13800;BME280;6971;50.028;9.258;2024-03-23T10:40:21;98883.69;;;7.48;100.00
13800;BME280;6971;50.028;9.258;2024-03-23T10:45:22;98875.16;;;8.13;100.00
13800;BME280;6971;50.028;9.258;2024-03-23T10:50:23;98875.84;;;8.49;100.00
13800;BME280;6971;50.028;9.258;2024-03-23T10:55:23;98872.66;;;8.10;100.00
13800;BME280;6971;50.028;9.258;2024-03-23T11:00:25;98874.72;;;8.55;99.23
13800;BME280;6971;50.028;9.258;2024-03-23T11:10:27;98858.38;;;7.82;98.29
13800;BME280;6971;50.028;9.258;2024-03-23T11:15:29;98857.00;;;7.75;99.53
13800;BME280;6971;50.028;9.258;2024-03-23T11:20:32;98863.03;;;7.59;100.00
13800;BME280;6971;50.028;9.258;2024-03-23T11:25:33;98856.72;;;7.46;100.00
13800;BME280;6971;50.028;9.258;2024-03-23T11:30:33;98862.91;;;7.25;100.00
13800;BME280;6971;50.028;9.258;2024-03-23T11:35:36;98867.47;;;7.92;97.87
13800;BME280;6971;50.028;9.258;2024-03-23T11:40:47;98871.00;;;8.75;95.50
13800;BME280;6971;50.028;9.258;2024-03-23T11:45:52;98873.88;;;8.54;95.67
13800;BME280;6971;50.028;9.258;2024-03-23T11:50:57;98955.00;;;6.61;100.00
13800;BME280;6971;50.028;9.258;2024-03-23T11:55:59;98968.97;;;4.89;100.00
13800;BME280;6971;50.028;9.258;2024-03-23T12:01:01;98956.91;;;4.63;100.00
13800;BME280;6971;50.028;9.258;2024-03-23T12:06:06;98940.22;;;4.89;100.00
13800;BME280;6971;50.028;9.258;2024-03-23T12:11:09;98936.69;;;5.14;100.00
13800;BME280;6971;50.028;9.258;2024-03-23T12:16:16;98904.75;;;5.71;100.00
13800;BME280;6971;50.028;9.258;2024-03-23T12:21:16;98883.31;;;6.05;100.00
13800;BME280;6971;50.028;9.258;2024-03-23T12:26:17;98876.94;;;5.90;100.00
13800;BME280;6971;50.028;9.258;2024-03-23T12:31:18;98861.31;;;6.49;100.00
13800;BME280;6971;50.028;9.258;2024-03-23T12:36:18;98857.31;;;7.68;100.00
13800;BME280;6971;50.028;9.258;2024-03-23T12:41:18;98847.44;;;7.74;100.00
13800;BME280;6971;50.028;9.258;2024-03-23T12:46:19;98848.56;;;8.19;100.00
13800;BME280;6971;50.028;9.258;2024-03-23T12:51:19;98847.59;;;8.04;100.00
13800;BME280;6971;50.028;9.258;2024-03-23T12:56:20;98838.25;;;8.48;100.00
13800;BME280;6971;50.028;9.258;2024-03-23T13:01:20;98823.00;;;8.87;99.01
13800;BME280;6971;50.028;9.258;2024-03-23T13:06:21;98804.28;;;9.24;93.53
13800;BME280;6971;50.028;9.258;2024-03-23T13:11:21;98801.91;;;9.65;97.81
13800;BME280;6971;50.028;9.258;2024-03-23T13:16:22;98817.31;;;9.71;90.02
13800;BME280;6971;50.028;9.258;2024-03-23T13:21:22;98812.44;;;9.79;87.00
13800;BME280;6971;50.028;9.258;2024-03-23T13:26:23;98809.53;;;9.24;87.11
13800;BME280;6971;50.028;9.258;2024-03-23T13:31:23;98820.13;;;8.76;84.70
13800;BME280;6971;50.028;9.258;2024-03-23T13:36:24;98817.63;;;8.08;85.33
13800;BME280;6971;50.028;9.258;2024-03-23T13:41:24;98807.06;;;8.10;84.12
13800;BME280;6971;50.028;9.258;2024-03-23T13:46:24;98825.44;;;7.76;88.02
13800;BME280;6971;50.028;9.258;2024-03-23T13:51:25;98832.00;;;7.67;94.34
13800;BME280;6971;50.028;9.258;2024-03-23T13:56:29;98872.66;;;6.86;100.00
13800;BME280;6971;50.028;9.258;2024-03-23T14:01:29;98888.72;;;6.40;100.00
13800;BME280;6971;50.028;9.258;2024-03-23T14:06:29;98935.34;;;5.04;100.00
13800;BME280;6971;50.028;9.258;2024-03-23T14:11:30;98943.72;;;3.38;100.00
13800;BME280;6971;50.028;9.258;2024-03-23T14:16:31;98951.38;;;3.16;100.00
13800;BME280;6971;50.028;9.258;2024-03-23T14:21:31;98936.91;;;2.77;100.00
13800;BME280;6971;50.028;9.258;2024-03-23T14:26:31;98926.19;;;2.88;100.00
13800;BME280;6971;50.028;9.258;2024-03-23T14:31:32;98910.13;;;3.31;100.00
13800;BME280;6971;50.028;9.258;2024-03-23T14:36:32;98900.66;;;3.81;100.00
13800;BME280;6971;50.028;9.258;2024-03-23T14:41:32;98886.78;;;3.28;100.00
13800;BME280;6971;50.028;9.258;2024-03-23T14:46:33;98880.06;;;4.46;100.00
13800;BME280;6971;50.028;9.258;2024-03-23T14:51:33;98871.97;;;4.06;100.00
13800;BME280;6971;50.028;9.258;2024-03-23T14:56:34;98871.69;;;4.14;100.00
13800;BME280;6971;50.028;9.258;2024-03-23T15:01:34;98869.28;;;3.58;100.00
13800;BME280;6971;50.028;9.258;2024-03-23T15:06:35;98863.78;;;4.39;100.00
13800;BME280;6971;50.028;9.258;2024-03-23T15:11:36;98847.00;;;4.47;100.00
13800;BME280;6971;50.028;9.258;2024-03-23T15:16:36;98836.91;;;4.13;100.00
13800;BME280;6971;50.028;9.258;2024-03-23T15:21:37;98828.09;;;4.86;100.00
13800;BME280;6971;50.028;9.258;2024-03-23T15:26:38;98833.75;;;4.75;100.00
13800;BME280;6971;50.028;9.258;2024-03-23T15:31:38;98809.78;;;5.08;100.00
13800;BME280;6971;50.028;9.258;2024-03-23T15:36:38;98801.50;;;5.40;100.00
13800;BME280;6971;50.028;9.258;2024-03-23T15:41:39;98803.84;;;5.67;100.00
13800;BME280;6971;50.028;9.258;2024-03-23T15:46:39;98788.88;;;5.50;100.00
13800;BME280;6971;50.028;9.258;2024-03-23T15:51:39;98777.59;;;5.49;100.00
13800;BME280;6971;50.028;9.258;2024-03-23T15:56:42;98771.25;;;5.55;100.00
13800;BME280;6971;50.028;9.258;2024-03-23T16:01:42;98765.38;;;5.69;100.00
13800;BME280;6971;50.028;9.258;2024-03-23T16:06:44;98743.81;;;5.64;100.00
13800;BME280;6971;50.028;9.258;2024-03-23T16:11:44;98736.00;;;5.24;100.00
13800;BME280;6971;50.028;9.258;2024-03-23T16:16:45;98719.47;;;5.64;100.00
13800;BME280;6971;50.028;9.258;2024-03-23T16:21:45;98718.53;;;5.65;100.00
13800;BME280;6971;50.028;9.258;2024-03-23T16:26:45;98736.78;;;5.66;100.00
13800;BME280;6971;50.028;9.258;2024-03-23T16:31:46;98730.56;;;5.69;100.00
13800;BME280;6971;50.028;9.258;2024-03-23T16:36:46;98764.81;;;5.62;100.00
13800;BME280;6971;50.028;9.258;2024-03-23T16:41:46;98788.34;;;5.00;100.00
13800;BME280;6971;50.028;9.258;2024-03-23T16:46:47;98818.97;;;4.74;100.00
13800;BME280;6971;50.028;9.258;2024-03-23T16:51:48;98794.28;;;4.14;100.00
13800;BME280;6971;50.028;9.258;2024-03-23T16:56:49;98765.84;;;3.84;100.00
13800;BME280;6971;50.028;9.258;2024-03-23T17:01:49;98766.34;;;3.70;100.00
13800;BME280;6971;50.028;9.258;2024-03-23T17:06:50;98768.47;;;3.59;100.00
13800;BME280;6971;50.028;9.258;2024-03-23T17:11:51;98770.63;;;3.47;100.00
13800;BME280;6971;50.028;9.258;2024-03-23T17:16:51;98780.06;;;3.51;100.00
13800;BME280;6971;50.028;9.258;2024-03-23T17:21:51;98782.41;;;3.34;100.00
13800;BME280;6971;50.028;9.258;2024-03-23T17:26:52;98778.66;;;3.16;100.00
13800;BME280;6971;50.028;9.258;2024-03-23T17:31:52;98781.84;;;2.98;100.00
13800;BME280;6971;50.028;9.258;2024-03-23T17:36:53;98779.03;;;2.78;100.00
13800;BME280;6971;50.028;9.258;2024-03-23T17:41:53;98781.03;;;2.69;100.00
13800;BME280;6971;50.028;9.258;2024-03-23T17:46:53;98774.34;;;2.62;100.00
13800;BME280;6971;50.028;9.258;2024-03-23T17:51:54;98782.31;;;2.56;100.00
13800;BME280;6971;50.028;9.258;2024-03-23T17:56:54;98778.88;;;2.55;100.00
13800;BME280;6971;50.028;9.258;2024-03-23T18:01:54;98767.81;;;2.48;100.00
13800;BME280;6971;50.028;9.258;2024-03-23T18:06:55;98770.47;;;2.47;100.00
13800;BME280;6971;50.028;9.258;2024-03-23T18:11:55;98771.66;;;2.64;100.00
13800;BME280;6971;50.028;9.258;2024-03-23T18:16:56;98773.59;;;2.57;100.00
13800;BME280;6971;50.028;9.258;2024-03-23T18:21:56;98761.91;;;2.70;100.00
13800;BME280;6971;50.028;9.258;2024-03-23T18:26:56;98763.66;;;2.70;100.00
13800;BME280;6971;50.028;9.258;2024-03-23T18:31:57;98756.16;;;2.60;100.00
13800;BME280;6971;50.028;9.258;2024-03-23T18:36:58;98747.41;;;2.63;100.00
13800;BME280;6971;50.028;9.258;2024-03-23T18:41:58;98757.91;;;2.60;100.00
13800;BME280;6971;50.028;9.258;2024-03-23T18:46:59;98732.22;;;2.49;100.00
13800;BME280;6971;50.028;9.258;2024-03-23T18:51:59;98758.00;;;2.57;100.00
13800;BME280;6971;50.028;9.258;2024-03-23T18:57:00;98786.72;;;2.54;100.00
13800;BME280;6971;50.028;9.258;2024-03-23T19:02:01;98788.31;;;2.01;100.00
13800;BME280;6971;50.028;9.258;2024-03-23T19:07:01;98789.00;;;2.06;100.00
13800;BME280;6971;50.028;9.258;2024-03-23T19:12:02;98783.25;;;2.25;100.00
13800;BME280;6971;50.028;9.258;2024-03-23T19:17:02;98784.16;;;2.24;100.00
13800;BME280;6971;50.028;9.258;2024-03-23T19:22:03;98786.56;;;2.30;100.00
13800;BME280;6971;50.028;9.258;2024-03-23T19:27:03;98784.94;;;2.26;100.00
13800;BME280;6971;50.028;9.258;2024-03-23T19:32:04;98791.03;;;2.26;100.00
13800;BME280;6971;50.028;9.258;2024-03-23T19:37:04;98789.63;;;1.84;100.00
13800;BME280;6971;50.028;9.258;2024-03-23T19:42:06;98796.19;;;1.98;100.00
13800;BME280;6971;50.028;9.258;2024-03-23T19:47:06;98791.91;;;1.95;100.00
13800;BME280;6971;50.028;9.258;2024-03-23T19:52:07;98801.94;;;2.09;100.00
13800;BME280;6971;50.028;9.258;2024-03-23T19:57:07;98801.94;;;2.09;100.00
13800;BME280;6971;50.028;9.258;2024-03-23T20:02:08;98802.38;;;2.24;100.00
13800;BME280;6971;50.028;9.258;2024-03-23T20:07:08;98805.88;;;2.22;100.00
13800;BME280;6971;50.028;9.258;2024-03-23T20:12:10;98798.16;;;2.19;100.00
13800;BME280;6971;50.028;9.258;2024-03-23T20:17:10;98799.56;;;2.30;100.00
13800;BME280;6971;50.028;9.258;2024-03-23T20:22:11;98787.28;;;2.35;100.00
13800;BME280;6971;50.028;9.258;2024-03-23T20:27:11;98792.38;;;2.09;100.00
13800;BME280;6971;50.028;9.258;2024-03-23T20:32:11;98776.81;;;2.08;100.00
13800;BME280;6971;50.028;9.258;2024-03-23T20:37:12;98788.69;;;2.17;100.00
13800;BME280;6971;50.028;9.258;2024-03-23T20:42:12;98790.38;;;2.18;100.00
13800;BME280;6971;50.028;9.258;2024-03-23T20:47:12;98789.81;;;2.08;100.00
13800;BME280;6971;50.028;9.258;2024-03-23T20:52:13;98789.53;;;2.17;100.00
13800;BME280;6971;50.028;9.258;2024-03-23T20:57:13;98791.75;;;2.30;100.00
13800;BME280;6971;50.028;9.258;2024-03-23T21:02:13;98789.00;;;2.36;100.00
13800;BME280;6971;50.028;9.258;2024-03-23T21:07:14;98779.09;;;2.19;100.00
13800;BME280;6971;50.028;9.258;2024-03-23T21:12:14;98774.50;;;2.27;100.00
13800;BME280;6971;50.028;9.258;2024-03-23T21:17:15;98770.34;;;2.21;100.00
13800;BME280;6971;50.028;9.258;2024-03-23T21:22:15;98766.66;;;2.29;100.00
13800;BME280;6971;50.028;9.258;2024-03-23T21:27:16;98763.94;;;2.33;100.00
13800;BME280;6971;50.028;9.258;2024-03-23T21:32:16;98780.56;;;2.28;100.00
13800;BME280;6971;50.028;9.258;2024-03-23T21:37:18;98783.22;;;2.26;100.00
13800;BME280;6971;50.028;9.258;2024-03-23T21:42:19;98786.47;;;2.33;100.00
13800;BME280;6971;50.028;9.258;2024-03-23T21:47:19;98789.88;;;2.35;100.00
13800;BME280;6971;50.028;9.258;2024-03-23T21:52:19;98776.06;;;2.33;100.00
13800;BME280;6971;50.028;9.258;2024-03-23T21:57:20;98775.66;;;2.47;100.00
13800;BME280;6971;50.028;9.258;2024-03-23T22:02:21;98774.72;;;2.50;100.00
13800;BME280;6971;50.028;9.258;2024-03-23T22:07:22;98781.81;;;2.44;100.00
13800;BME280;6971;50.028;9.258;2024-03-23T22:12:26;98770.53;;;2.44;100.00
13800;BME280;6971;50.028;9.258;2024-03-23T22:17:26;98770.50;;;2.45;100.00
13800;BME280;6971;50.028;9.258;2024-03-23T22:22:27;98758.41;;;2.44;100.00
13800;BME280;6971;50.028;9.258;2024-03-23T22:27:27;98754.91;;;2.45;100.00
13800;BME280;6971;50.028;9.258;2024-03-23T22:32:29;98757.44;;;2.47;100.00
13800;BME280;6971;50.028;9.258;2024-03-23T22:37:29;98751.69;;;2.37;100.00
13800;BME280;6971;50.028;9.258;2024-03-23T22:42:30;98740.47;;;2.35;100.00
13800;BME280;6971;50.028;9.258;2024-03-23T22:47:31;98742.06;;;2.39;100.00
13800;BME280;6971;50.028;9.258;2024-03-23T22:52:31;98730.00;;;2.37;100.00
13800;BME280;6971;50.028;9.258;2024-03-23T22:57:32;98724.84;;;2.35;100.00
13800;BME280;6971;50.028;9.258;2024-03-23T23:02:32;98719.28;;;2.47;100.00
13800;BME280;6971;50.028;9.258;2024-03-23T23:07:32;98714.06;;;2.47;100.00
13800;BME280;6971;50.028;9.258;2024-03-23T23:12:33;98708.91;;;2.46;100.00
13800;BME280;6971;50.028;9.258;2024-03-23T23:17:34;98701.97;;;2.46;100.00
13800;BME280;6971;50.028;9.258;2024-03-23T23:22:34;98693.06;;;2.54;100.00
13800;BME280;6971;50.028;9.258;2024-03-23T23:27:35;98680.94;;;2.53;100.00
13800;BME280;6971;50.028;9.258;2024-03-23T23:32:36;98679.19;;;2.53;100.00
13800;BME280;6971;50.028;9.258;2024-03-23T23:37:36;98677.34;;;2.57;100.00
13800;BME280;6971;50.028;9.258;2024-03-23T23:42:37;98667.84;;;2.56;100.00
13800;BME280;6971;50.028;9.258;2024-03-23T23:47:37;98665.06;;;2.62;100.00
13800;BME280;6971;50.028;9.258;2024-03-23T23:52:38;98657.25;;;2.62;100.00
13800;BME280;6971;50.028;9.258;2024-03-23T23:57:38;98655.47;;;2.63;100.00
